»·PEaware :: N967SA KGEG-KSNA

N967SA :: KGEG-KSNA

FLIGHT INFORMATION

Flight Status: Arrived
Operator: Privately registered:
United States
More flights under this callsign
Pilot: Maxine G. (31135)
Aircraft: DASSAULT AVIATION FALCON 50
(FA50)
More flights by this aircraft type
Origin: KGEG Spokane Intl
United States
Destination: KSNA John Wayne-Orange Co
United States
More flights between these airports :: More routes between these airports
Route: GEG J153 REO J7 REBRG OHSEA2
File this flight plan on PilotEdge
Remarks:
Altitude:
(Current/Filed)
41,000ft
Speed:
(Current/Filed)
450kts
Departed: 12-Jan-21 06:59 PM
Arrived: 12-Jan-21 09:01 PM
Distance/Time
Traveled:
837nm/2:02
Distance/Time
To Go:
Arrived

Flight Plot

Page will automatically refresh every two minutes.

Flight plan parsing failed; only flown route is shown


Map Options




Map Legend


Flown Route
Filed Route
Departure Airport
Arrival Airport
Navaid (VOR, NDB)
Fix

Horizontal Profiles

Position Reports

Time Latitude Longitude Heading Altitude Ground
Speed
12-Jan-21 18:39 47.621436 -117.524100 269 2360ft 0kts
12-Jan-21 18:40 47.621436 -117.524100 269 2360ft 0kts
12-Jan-21 18:41 47.621436 -117.524100 269 2360ft 0kts
12-Jan-21 18:42 47.621436 -117.524100 269 2360ft 0kts
12-Jan-21 18:43 47.621436 -117.524100 269 2360ft 0kts
12-Jan-21 18:44 47.621436 -117.524100 269 2360ft 0kts
12-Jan-21 18:45 47.621436 -117.524100 269 2360ft 0kts
12-Jan-21 18:46 47.621436 -117.524100 269 2360ft 0kts
12-Jan-21 18:47 47.621436 -117.524100 269 2360ft 0kts
12-Jan-21 18:48 47.621436 -117.524100 269 2360ft 0kts
12-Jan-21 18:49 47.621436 -117.524100 269 2360ft 0kts
12-Jan-21 18:50 47.621436 -117.524100 269 2360ft 0kts
12-Jan-21 18:51 47.621436 -117.524100 269 2360ft 0kts
12-Jan-21 18:52 47.621436 -117.524100 269 2360ft 0kts
12-Jan-21 18:53 47.621436 -117.524100 269 2360ft 0kts
12-Jan-21 18:54 47.622253 -117.524070 9 2358ft 3kts
12-Jan-21 18:55 47.625142 -117.523899 35 2349ft 15kts
12-Jan-21 18:56 47.628883 -117.518305 45 2334ft 9kts
12-Jan-21 18:57 47.630258 -117.517122 312 2326ft 4kts
12-Jan-21 18:58 47.625093 -117.527384 223 2354ft 133kts
12-Jan-21 19:00 47.587336 -117.587741 224 5192ft 249kts
12-Jan-21 19:01 47.528943 -117.644673 182 9896ft 268kts
12-Jan-21 19:02 47.445771 -117.648382 188 12103ft 324kts
12-Jan-21 19:03 47.348196 -117.651661 188 13656ft 323kts
12-Jan-21 19:04 47.247501 -117.655236 189 16244ft 338kts
12-Jan-21 19:05 47.143789 -117.658827 190 18759ft 351kts
12-Jan-21 19:06 47.036197 -117.662991 193 21420ft 364kts
12-Jan-21 19:07 46.925781 -117.671055 193 24027ft 380kts
12-Jan-21 19:08 46.815439 -117.678771 194 26283ft 399kts
12-Jan-21 19:09 46.700117 -117.686589 195 28239ft 414kts
12-Jan-21 19:10 46.577748 -117.694650 195 30442ft 416kts
12-Jan-21 19:11 46.453301 -117.703090 196 32373ft 420kts
12-Jan-21 19:12 46.319199 -117.712159 197 33858ft 433kts
12-Jan-21 19:13 46.178384 -117.721475 196 35269ft 443kts
12-Jan-21 19:13 46.058690 -117.729330 196 36330ft 448kts
12-Jan-21 19:15 45.888676 -117.740549 196 37354ft 460kts
12-Jan-21 19:15 45.764707 -117.748648 196 37955ft 465kts
12-Jan-21 19:17 45.598519 -117.758990 197 40064ft 439kts
12-Jan-21 19:17 45.496790 -117.765737 197 41127ft 434kts
12-Jan-21 19:18 45.369945 -117.774471 196 41123ft 457kts
12-Jan-21 19:20 45.210221 -117.784604 195 41132ft 473kts
12-Jan-21 19:20 45.091684 -117.792079 195 41153ft 479kts
12-Jan-21 19:21 44.944143 -117.801453 192 41190ft 489kts
12-Jan-21 19:22 44.790627 -117.810274 190 41185ft 498kts
12-Jan-21 19:23 44.635224 -117.813785 190 41185ft 502kts
12-Jan-21 19:24 44.476672 -117.817955 190 41187ft 503kts
12-Jan-21 19:25 44.319108 -117.822259 190 41183ft 504kts
12-Jan-21 19:26 44.168182 -117.826371 190 41191ft 504kts
12-Jan-21 19:27 44.018118 -117.830436 190 41279ft 503kts
12-Jan-21 19:28 43.870678 -117.834424 190 41301ft 504kts
12-Jan-21 19:29 43.726392 -117.838299 190 41304ft 504kts
12-Jan-21 19:30 43.585482 -117.842072 190 41248ft 505kts
12-Jan-21 19:31 43.442940 -117.845852 190 41186ft 505kts
12-Jan-21 19:32 43.302719 -117.849561 190 41185ft 505kts
12-Jan-21 19:33 43.161957 -117.853280 190 41187ft 504kts
12-Jan-21 19:34 43.021502 -117.856960 190 41190ft 504kts
12-Jan-21 19:35 42.881201 -117.860634 187 41183ft 506kts
12-Jan-21 19:36 42.740303 -117.864279 187 41183ft 505kts
12-Jan-21 19:37 42.601130 -117.873593 197 41185ft 495kts
12-Jan-21 19:38 42.475620 -117.938735 211 41183ft 480kts
12-Jan-21 19:39 42.353582 -118.013558 211 41184ft 480kts
12-Jan-21 19:40 42.230578 -118.088505 211 41182ft 481kts
12-Jan-21 19:41 42.107573 -118.163086 211 41183ft 481kts
12-Jan-21 19:42 41.984128 -118.237627 211 41185ft 481kts
12-Jan-21 19:43 41.861577 -118.311311 211 41175ft 481kts
12-Jan-21 19:44 41.739905 -118.384151 211 41176ft 480kts
12-Jan-21 19:45 41.617184 -118.457324 211 41177ft 480kts
12-Jan-21 19:46 41.494298 -118.530286 211 41177ft 480kts
12-Jan-21 19:47 41.370780 -118.603306 211 41235ft 479kts
12-Jan-21 19:48 41.248610 -118.675254 210 41327ft 478kts
12-Jan-21 19:49 41.126663 -118.746774 210 41324ft 481kts
12-Jan-21 19:50 41.008337 -118.815883 210 41325ft 483kts
12-Jan-21 19:51 40.880421 -118.890282 210 41320ft 486kts
12-Jan-21 19:52 40.754619 -118.963110 210 41319ft 484kts
12-Jan-21 19:53 40.631992 -119.033821 210 41319ft 480kts
12-Jan-21 19:54 40.509944 -119.103937 210 41318ft 477kts
12-Jan-21 19:55 40.388731 -119.173307 210 41318ft 476kts
12-Jan-21 19:56 40.267232 -119.242563 210 41318ft 476kts
12-Jan-21 19:57 40.145734 -119.311541 210 41323ft 475kts
12-Jan-21 19:58 40.024563 -119.380060 210 41363ft 474kts
12-Jan-21 19:59 39.901892 -119.449166 210 41363ft 475kts
12-Jan-21 20:00 39.777657 -119.518858 210 41350ft 475kts
12-Jan-21 20:01 39.655937 -119.586881 210 41325ft 475kts
12-Jan-21 20:02 39.530978 -119.648103 198 41318ft 486kts
12-Jan-21 20:03 39.391191 -119.652328 185 41338ft 500kts
12-Jan-21 20:04 39.250771 -119.648823 185 41360ft 501kts
12-Jan-21 20:05 39.109577 -119.645226 185 41368ft 502kts
12-Jan-21 20:06 38.968496 -119.641633 184 41362ft 503kts
12-Jan-21 20:07 38.825310 -119.638009 183 41358ft 506kts
12-Jan-21 20:08 38.678298 -119.634288 183 41361ft 507kts
12-Jan-21 20:09 38.534921 -119.630672 183 41376ft 508kts
12-Jan-21 20:10 38.391750 -119.627081 183 41376ft 508kts
12-Jan-21 20:11 38.250086 -119.623541 183 41377ft 509kts
12-Jan-21 20:12 38.107589 -119.619993 183 41403ft 509kts
12-Jan-21 20:13 37.964522 -119.616448 183 41411ft 509kts
12-Jan-21 20:14 37.822518 -119.612946 183 41404ft 509kts
12-Jan-21 20:15 37.681533 -119.609483 183 41405ft 509kts
12-Jan-21 20:16 37.538876 -119.605989 183 41397ft 509kts
12-Jan-21 20:17 37.397273 -119.602534 183 41366ft 509kts
12-Jan-21 20:18 37.253999 -119.599047 183 41367ft 509kts
12-Jan-21 20:19 37.110595 -119.595573 183 41362ft 509kts
12-Jan-21 20:20 36.968282 -119.597214 184 41363ft 512kts
12-Jan-21 20:21 36.825251 -119.600259 184 41357ft 516kts
12-Jan-21 20:22 36.681747 -119.602786 184 41357ft 518kts
12-Jan-21 20:23 36.538029 -119.605253 184 41363ft 519kts
12-Jan-21 20:24 36.393624 -119.607725 184 41369ft 519kts
12-Jan-21 20:25 36.249528 -119.610184 184 41371ft 519kts
12-Jan-21 20:26 36.104807 -119.612645 184 41371ft 520kts
12-Jan-21 20:27 35.961070 -119.619706 189 41372ft 517kts
12-Jan-21 20:28 35.819474 -119.647520 193 41361ft 514kts
12-Jan-21 20:29 35.676951 -119.669219 179 41358ft 521kts
12-Jan-21 20:30 35.538257 -119.614148 157 41358ft 530kts
12-Jan-21 20:31 35.404020 -119.539870 157 41356ft 530kts
12-Jan-21 20:32 35.269137 -119.465738 157 41353ft 531kts
12-Jan-21 20:33 35.130613 -119.389899 157 41354ft 529kts
12-Jan-21 20:34 34.992785 -119.314720 157 41065ft 520kts
12-Jan-21 20:35 34.855735 -119.240273 155 39810ft 509kts
12-Jan-21 20:36 34.723398 -119.168508 154 37500ft 510kts
12-Jan-21 20:37 34.596397 -119.086978 151 35441ft 505kts
12-Jan-21 20:38 34.473735 -119.007607 150 33256ft 491kts
12-Jan-21 20:39 34.355250 -118.929423 149 31221ft 479kts
12-Jan-21 20:40 34.239694 -118.854078 153 29344ft 469kts
12-Jan-21 20:41 34.119028 -118.802250 161 26913ft 453kts
12-Jan-21 20:42 34.001766 -118.756380 162 23651ft 427kts
12-Jan-21 20:43 33.892432 -118.714171 162 19430ft 394kts
12-Jan-21 20:44 33.791637 -118.675352 163 15418ft 363kts
12-Jan-21 20:45 33.694381 -118.639180 164 12256ft 346kts
12-Jan-21 20:47 33.606969 -118.606350 151 10492ft 305kts
12-Jan-21 20:48 33.554147 -118.526758 121 8320ft 293kts
12-Jan-21 20:49 33.521297 -118.438932 89 6766ft 283kts
12-Jan-21 20:50 33.519202 -118.342359 83 5816ft 278kts
12-Jan-21 20:51 33.543188 -118.253585 67 5265ft 271kts
12-Jan-21 20:52 33.573581 -118.167396 57 4998ft 262kts
12-Jan-21 20:53 33.615212 -118.092267 54 4996ft 274kts
12-Jan-21 20:54 33.658551 -118.014318 55 4961ft 266kts
12-Jan-21 20:55 33.703173 -117.942854 35 3001ft 256kts
12-Jan-21 20:56 33.765306 -117.902199 30 1972ft 223kts
12-Jan-21 20:57 33.779404 -117.839829 126 1869ft 207kts
12-Jan-21 20:58 33.741602 -117.822960 217 1367ft 130kts
12-Jan-21 20:59 33.711832 -117.845883 206 646ft 123kts
12-Jan-21 21:00 33.683169 -117.864074 208 125ft 113kts
12-Jan-21 21:01 33.669501 -117.871996 153 63ft 9kts
12-Jan-21 21:02 33.670560 -117.869440 40 63ft 15kts
12-Jan-21 21:03 33.671448 -117.867374 117 63ft 0kts

Navigation Log

Ident Type
Flight plan parsing failed, navigation log unavailable